createdAt,value
2023-04-04T00:01:08.521Z,1
2023-04-04T00:03:08.519Z,1
2023-04-04T00:05:15.633Z,1
2023-04-04T00:07:08.518Z,1
2023-04-04T00:09:08.471Z,1
2023-04-04T00:11:08.551Z,1
2023-04-04T00:13:15.787Z,1
2023-04-04T00:15:18.596Z,1
2023-04-04T00:17:08.294Z,1
2023-04-04T00:19:12.023Z,1
2023-04-04T00:21:12.251Z,1
2023-04-04T00:23:08.380Z,1
2023-04-04T00:25:08.398Z,1
2023-04-04T00:27:08.592Z,1
2023-04-04T00:29:08.632Z,1
2023-04-04T00:31:15.425Z,1
2023-04-04T00:33:08.637Z,1
2023-04-04T00:35:08.624Z,1
2023-04-04T00:37:08.553Z,1
2023-04-04T00:39:08.834Z,1
2023-04-04T00:41:08.375Z,1
2023-04-04T00:43:08.391Z,1
2023-04-04T00:45:08.440Z,1
2023-04-04T00:47:08.452Z,1
2023-04-04T00:49:08.716Z,1
2023-04-04T00:51:08.581Z,1
2023-04-04T00:53:08.496Z,1
2023-04-04T00:55:08.484Z,1
2023-04-04T00:57:08.770Z,1
2023-04-04T00:59:08.681Z,1
2023-04-04T01:01:22.173Z,1
2023-04-04T01:03:18.651Z,1
2023-04-04T01:05:08.436Z,1
2023-04-04T01:07:08.496Z,1
2023-04-04T01:09:08.409Z,1
2023-04-04T01:11:08.366Z,1
2023-04-04T01:13:15.453Z,1
2023-04-04T01:15:12.156Z,1
2023-04-04T01:17:08.449Z,1
2023-04-04T01:19:08.384Z,1
2023-04-04T01:21:08.438Z,1
2023-04-04T01:23:15.334Z,1
2023-04-04T01:25:08.301Z,1
2023-04-04T01:27:08.740Z,1
2023-04-04T01:29:12.084Z,1
2023-04-04T01:31:08.389Z,1
2023-04-04T01:33:15.458Z,1
2023-04-04T01:35:08.288Z,1
2023-04-04T01:37:08.370Z,1
2023-04-04T01:39:08.424Z,1
2023-04-04T01:41:11.860Z,1
2023-04-04T01:43:12.317Z,1
2023-04-04T01:45:08.695Z,1
2023-04-04T01:47:08.399Z,1
2023-04-04T01:49:09.627Z,1
2023-04-04T01:51:08.504Z,1
2023-04-04T01:53:08.382Z,1
2023-04-04T01:55:15.976Z,1
2023-04-04T01:57:11.597Z,1
2023-04-04T01:59:08.401Z,1
2023-04-04T02:01:12.183Z,1
2023-04-04T02:03:08.712Z,1
2023-04-04T02:05:08.456Z,1
2023-04-04T02:07:08.615Z,1
2023-04-04T02:09:08.470Z,1
2023-04-04T02:11:15.470Z,1
2023-04-04T02:13:08.450Z,1
2023-04-04T02:17:08.368Z,1
2023-04-04T02:19:08.606Z,1
2023-04-04T02:21:08.508Z,1
2023-04-04T02:23:08.635Z,1
2023-04-04T02:25:08.670Z,1
2023-04-04T02:27:15.461Z,1
2023-04-04T02:29:12.463Z,1
2023-04-04T02:31:08.466Z,1
2023-04-04T02:33:11.586Z,1
2023-04-04T02:35:12.596Z,1
2023-04-04T02:37:12.631Z,1
2023-04-04T02:39:08.425Z,1
2023-04-04T02:41:08.654Z,1
2023-04-04T02:43:08.678Z,1
2023-04-04T02:45:11.808Z,1
2023-04-04T02:47:12.318Z,1
2023-04-04T02:49:08.560Z,1
2023-04-04T02:51:15.402Z,1
2023-04-04T02:53:12.400Z,1
2023-04-04T02:55:08.471Z,1
2023-04-04T02:57:08.573Z,1
2023-04-04T03:01:08.555Z,1
2023-04-04T03:05:12.328Z,1
2023-04-04T03:07:08.389Z,1
2023-04-04T03:09:15.351Z,1
2023-04-04T03:11:08.378Z,1
2023-04-04T03:13:08.409Z,1
2023-04-04T03:15:12.250Z,1
2023-04-04T03:17:08.410Z,1
2023-04-04T03:19:12.099Z,1
2023-04-04T03:21:08.618Z,1
2023-04-04T03:23:08.503Z,1
2023-04-04T03:25:08.940Z,1
2023-04-04T03:27:08.814Z,1
2023-04-04T03:29:08.625Z,1
2023-04-04T03:31:08.735Z,1
2023-04-04T03:33:08.785Z,1
2023-04-04T03:35:08.400Z,1
2023-04-04T03:37:15.373Z,1
2023-04-04T03:39:08.549Z,1
2023-04-04T03:41:11.602Z,1
2023-04-04T03:43:15.759Z,1
2023-04-04T03:45:11.643Z,1
2023-04-04T03:47:15.407Z,1
2023-04-04T03:49:15.504Z,1
2023-04-04T03:51:15.588Z,1
2023-04-04T03:57:08.455Z,0
2023-04-04T03:59:08.601Z,0
2023-04-04T04:01:08.563Z,0
2023-04-04T04:03:08.517Z,0
2023-04-04T04:05:08.523Z,0
2023-04-04T04:07:08.365Z,0.1
2023-04-04T04:09:08.461Z,0.2
2023-04-04T04:11:08.500Z,0.2
2023-04-04T04:13:12.361Z,0.3
2023-04-04T04:15:08.434Z,0.4
2023-04-04T04:17:08.410Z,0.6
2023-04-04T04:19:15.437Z,1
2023-04-04T04:21:08.566Z,1.3
2023-04-04T04:25:16.141Z,3
2023-04-04T04:27:08.569Z,4.5
2023-04-04T04:29:12.477Z,6.7
2023-04-04T04:31:08.482Z,10
2023-04-04T04:33:08.826Z,14.2
2023-04-04T04:35:12.170Z,21.1
2023-04-04T04:37:08.418Z,28.5
2023-04-04T04:39:08.860Z,40.4
2023-04-04T04:41:08.560Z,51.9
2023-04-04T04:43:12.566Z,70.1
2023-04-04T04:45:08.649Z,90
2023-04-04T04:47:08.828Z,115.6
2023-04-04T04:49:08.446Z,141.2
2023-04-04T04:51:18.109Z,172.4
2023-04-04T04:53:08.544Z,200.3
2023-04-04T04:55:08.407Z,244.7
2023-04-04T04:57:08.434Z,284.3
2023-04-04T04:59:12.691Z,330.3
2023-04-04T05:01:08.708Z,365
2023-04-04T05:03:08.502Z,424.1
2023-04-04T05:05:12.718Z,468.7
2023-04-04T05:07:12.692Z,518
2023-04-04T05:09:08.372Z,572.5
2023-04-04T05:11:08.621Z,632.7
2023-04-04T05:13:12.658Z,699.2
2023-04-04T05:15:12.839Z,735.1
2023-04-04T05:17:08.469Z,772.8
2023-04-04T05:19:08.683Z,854.1
2023-04-04T05:21:08.477Z,897.8
2023-04-04T05:25:13.233Z,1043.1
2023-04-04T05:27:12.594Z,1096.6
2023-04-04T05:29:08.386Z,1152.9
2023-04-04T05:31:08.280Z,1212
2023-04-04T05:33:08.543Z,1212
2023-04-04T05:35:12.153Z,1274.1
2023-04-04T05:37:08.379Z,1339.4
2023-04-04T05:39:08.616Z,1408.1
2023-04-04T05:41:08.457Z,1408.1
2023-04-04T05:43:08.594Z,1480.3
2023-04-04T05:45:08.648Z,1556.2
2023-04-04T05:47:18.881Z,1556.2
2023-04-04T05:49:15.781Z,1636
2023-04-04T05:51:09.451Z,1636
2023-04-04T05:53:08.338Z,1719.9
2023-04-04T05:55:08.604Z,1808
2023-04-04T05:57:12.336Z,1808
2023-04-04T05:59:08.450Z,1900.7
2023-04-04T06:01:08.421Z,1900.7
2023-04-04T06:03:08.809Z,1900.7
2023-04-04T06:05:08.522Z,1998.2
2023-04-04T06:07:08.590Z,1998.2
2023-04-04T06:09:08.876Z,2100.6
2023-04-04T06:11:08.435Z,2100.6
2023-04-04T06:13:08.761Z,2208.3
2023-04-04T06:15:12.744Z,2208.3
2023-04-04T06:17:12.590Z,2208.3
2023-04-04T06:19:08.458Z,2321.6
2023-04-04T06:21:08.713Z,2321.6
2023-04-04T06:23:12.512Z,2321.6
2023-04-04T06:25:08.439Z,2440.6
2023-04-04T06:27:08.514Z,2440.6
2023-04-04T06:29:12.879Z,2565.7
2023-04-04T06:31:15.878Z,2565.7
2023-04-04T06:33:12.756Z,5431.7
2023-04-04T06:35:12.252Z,7332
2023-04-04T06:37:11.619Z,7707.9
2023-04-04T06:39:12.421Z,8103.1
2023-04-04T06:41:11.954Z,8518.5
2023-04-04T06:43:08.430Z,8955.3
2023-04-04T06:45:12.193Z,9414.4
2023-04-04T06:47:08.429Z,9897.1
2023-04-04T06:49:08.693Z,9897.1
2023-04-04T06:51:08.432Z,10404.6
2023-04-04T06:53:18.926Z,10938
2023-04-04T06:55:12.300Z,11498.8
2023-04-04T06:57:08.726Z,11498.8
2023-04-04T06:59:08.451Z,12088.4
2023-04-04T07:01:08.755Z,12708.2
2023-04-04T07:03:08.612Z,13359.7
2023-04-04T07:05:08.569Z,13359.7
2023-04-04T07:09:12.960Z,14764.8
2023-04-04T07:11:12.053Z,14764.8
2023-04-04T07:13:08.783Z,15521.8
2023-04-04T07:17:17.371Z,16317.6
2023-04-04T07:19:08.715Z,16317.6
2023-04-04T07:23:08.508Z,18033.7
2023-04-04T07:25:08.467Z,10404.6
2023-04-04T07:27:12.437Z,4230.2
2023-04-04T07:29:08.735Z,4023.9
2023-04-04T07:31:08.433Z,4023.9
2023-04-04T07:33:08.764Z,4023.9
2023-04-04T07:35:08.617Z,4023.9
2023-04-04T07:37:08.392Z,4023.9
2023-04-04T07:39:12.584Z,4230.2
2023-04-04T07:41:08.505Z,4230.2
2023-04-04T07:43:12.743Z,4230.2
2023-04-04T07:45:12.456Z,4230.2
2023-04-04T07:47:10.457Z,4230.2
2023-04-04T07:49:08.522Z,4447.1
2023-04-04T07:51:08.658Z,4447.1
2023-04-04T07:53:08.439Z,4447.1
2023-04-04T07:55:08.905Z,4675.1
2023-04-04T07:57:12.487Z,4675.1
2023-04-04T07:59:08.606Z,4675.1
2023-04-04T08:01:08.450Z,4914.8
2023-04-04T08:03:12.217Z,5166.8
2023-04-04T08:05:08.432Z,5166.8
2023-04-04T08:07:08.657Z,5710.1
2023-04-04T08:09:08.621Z,6310.7
2023-04-04T08:11:08.400Z,6310.7
2023-04-04T08:13:08.479Z,6002.9
2023-04-04T08:15:15.692Z,6310.7
2023-04-04T08:17:08.563Z,4914.8
2023-04-04T08:19:08.450Z,6310.7
2023-04-04T08:21:08.452Z,6310.7
2023-04-04T08:23:08.567Z,6634.2
2023-04-04T08:25:08.760Z,6974.4
2023-04-04T08:27:12.120Z,6974.4
2023-04-04T08:29:12.302Z,7332
2023-04-04T08:31:08.502Z,8103.1
2023-04-04T08:33:18.716Z,8103.1
2023-04-04T08:35:08.442Z,8103.1
2023-04-04T08:37:12.663Z,7707.9
2023-04-04T08:39:08.470Z,8955.3
2023-04-04T08:41:08.634Z,9414.4
2023-04-04T08:43:08.501Z,8518.5
2023-04-04T08:45:08.562Z,8103.1
2023-04-04T08:47:08.778Z,8103.1
2023-04-04T08:49:08.659Z,8103.1
2023-04-04T08:51:08.486Z,8955.3
2023-04-04T08:53:11.985Z,10938
2023-04-04T08:55:13.461Z,8955.3
2023-04-04T08:57:08.614Z,10404.6
2023-04-04T08:59:12.005Z,10404.6
2023-04-04T09:01:08.412Z,10404.6
2023-04-04T09:03:12.989Z,8518.5
2023-04-04T09:05:08.548Z,8518.5
2023-04-04T09:07:08.478Z,8518.5
2023-04-04T09:09:08.739Z,8955.3
2023-04-04T09:11:08.638Z,8955.3
2023-04-04T09:13:15.412Z,9897.1
2023-04-04T09:15:08.795Z,9897.1
2023-04-04T09:17:08.726Z,9897.1
2023-04-04T09:19:08.536Z,10404.6
2023-04-04T09:21:12.088Z,9897.1
2023-04-04T09:23:08.522Z,9414.4
2023-04-04T09:25:11.970Z,9897.1
2023-04-04T09:27:08.490Z,9414.4
2023-04-04T09:29:08.721Z,8955.3
2023-04-04T09:31:08.569Z,9414.4
2023-04-04T09:33:12.027Z,9414.4
2023-04-04T09:35:11.795Z,9897.1
2023-04-04T09:37:08.467Z,9897.1
2023-04-04T09:39:08.457Z,10938
2023-04-04T09:41:08.760Z,10404.6
2023-04-04T09:43:08.362Z,9897.1
2023-04-04T09:45:08.829Z,10404.6
2023-04-04T09:47:08.656Z,10404.6
2023-04-04T09:49:13.238Z,10938
2023-04-04T09:51:11.989Z,11498.8
2023-04-04T09:53:08.421Z,12708.2
2023-04-04T09:55:08.581Z,9897.1
2023-04-04T09:57:08.537Z,8955.3
2023-04-04T09:59:08.664Z,8955.3
2023-04-04T10:01:08.777Z,8955.3
2023-04-04T10:03:15.853Z,9897.1
2023-04-04T10:05:08.487Z,10404.6
2023-04-04T10:07:08.688Z,12088.4
2023-04-04T10:11:12.206Z,12088.4
2023-04-04T10:13:08.524Z,12088.4
2023-04-04T10:15:08.746Z,12088.4
2023-04-04T10:17:09.163Z,10404.6
2023-04-04T10:19:08.556Z,10938
2023-04-04T10:23:08.605Z,11498.8
2023-04-04T10:25:15.503Z,12708.2
2023-04-04T10:27:18.680Z,11498.8
2023-04-04T10:29:12.205Z,12088.4
2023-04-04T10:31:11.654Z,11498.8
2023-04-04T10:33:08.718Z,13359.7
2023-04-04T10:35:08.527Z,12088.4
2023-04-04T10:37:13.194Z,11498.8
2023-04-04T10:39:18.715Z,14044.7
2023-04-04T10:41:08.357Z,14044.7
2023-04-04T10:43:11.827Z,12708.2
2023-04-04T10:45:20.884Z,14044.7
2023-04-04T10:47:12.628Z,14044.7
2023-04-04T10:49:08.720Z,12708.2
2023-04-04T10:51:11.946Z,12708.2
2023-04-04T10:53:08.580Z,13359.7
2023-04-04T10:55:12.610Z,14044.7
2023-04-04T10:57:08.500Z,13359.7
2023-04-04T10:59:08.914Z,12708.2
2023-04-04T11:01:08.639Z,12708.2
2023-04-04T11:03:11.983Z,12708.2
2023-04-04T11:05:08.374Z,12708.2
2023-04-04T11:09:11.935Z,12708.2
2023-04-04T11:11:22.356Z,12088.4
2023-04-04T11:13:12.160Z,12088.4
2023-04-04T11:15:12.233Z,12708.2
2023-04-04T11:17:08.726Z,13359.7
2023-04-04T11:21:08.707Z,14044.7
2023-04-04T11:23:08.550Z,14044.7
2023-04-04T11:25:08.570Z,14764.8
2023-04-04T11:27:08.836Z,14764.8
2023-04-04T11:29:08.744Z,14044.7
2023-04-04T11:33:11.894Z,13359.7
2023-04-04T11:35:08.717Z,13359.7
2023-04-04T11:37:08.548Z,14044.7
2023-04-04T11:39:18.923Z,14044.7
2023-04-04T11:41:08.541Z,12088.4
2023-04-04T11:43:16.057Z,11498.8
2023-04-04T11:45:08.657Z,12088.4
2023-04-04T11:47:15.589Z,11498.8
2023-04-04T11:49:08.732Z,12088.4
2023-04-04T11:51:08.825Z,11498.8
2023-04-04T11:53:08.617Z,14044.7
2023-04-04T11:55:08.917Z,10938
2023-04-04T11:57:08.788Z,14044.7
2023-04-04T11:59:11.250Z,13359.7
2023-04-04T12:01:08.550Z,11498.8
2023-04-04T12:03:08.633Z,13359.7
2023-04-04T12:05:08.720Z,11498.8
2023-04-04T12:07:08.653Z,11498.8
2023-04-04T12:09:08.537Z,13359.7
2023-04-04T12:11:08.911Z,13359.7
2023-04-04T12:13:08.537Z,12708.2
2023-04-04T12:15:16.858Z,11498.8
2023-04-04T12:17:12.156Z,10404.6
2023-04-04T12:19:19.049Z,10404.6
2023-04-04T12:21:12.035Z,10938
2023-04-04T12:23:12.054Z,11498.8
2023-04-04T12:25:12.249Z,13359.7
2023-04-04T12:27:12.450Z,12708.2
2023-04-04T12:29:12.343Z,10938
2023-04-04T12:31:08.635Z,10404.6
2023-04-04T12:33:08.432Z,9897.1
2023-04-04T12:35:08.461Z,9897.1
2023-04-04T12:37:08.562Z,12708.2
2023-04-04T12:39:08.536Z,13359.7
2023-04-04T12:41:08.483Z,10404.6
2023-04-04T12:43:08.616Z,9897.1
2023-04-04T12:45:09.540Z,9414.4
2023-04-04T12:47:08.645Z,9414.4
2023-04-04T12:49:08.628Z,12708.2
2023-04-04T12:51:08.524Z,13359.7
2023-04-04T12:53:24.615Z,12088.4
2023-04-04T12:55:12.122Z,12088.4
2023-04-04T12:57:08.824Z,14764.8
2023-04-04T12:59:08.645Z,14044.7
2023-04-04T13:01:08.597Z,11498.8
2023-04-04T13:03:08.732Z,10938
2023-04-04T13:05:08.517Z,10938
2023-04-04T13:07:08.490Z,12708.2
2023-04-04T13:09:11.788Z,11498.8
2023-04-04T13:11:12.196Z,14044.7
2023-04-04T13:13:08.477Z,12708.2
2023-04-04T13:15:08.822Z,12708.2
2023-04-04T13:17:08.803Z,12088.4
2023-04-04T13:19:08.467Z,12088.4
2023-04-04T13:21:08.687Z,11498.8
2023-04-04T13:23:11.911Z,11498.8
2023-04-04T13:25:15.298Z,12088.4
2023-04-04T13:27:12.169Z,12088.4
2023-04-04T13:29:08.878Z,11498.8
2023-04-04T13:31:08.480Z,10938
2023-04-04T13:33:11.851Z,10938
2023-04-04T13:35:12.282Z,11498.8
2023-04-04T13:37:08.812Z,10938
2023-04-04T13:39:08.546Z,10938
2023-04-04T13:41:08.690Z,10938
2023-04-04T13:43:12.195Z,9897.1
2023-04-04T13:45:08.402Z,9897.1
2023-04-04T13:49:08.513Z,11498.8
2023-04-04T13:51:18.235Z,11498.8
2023-04-04T13:53:08.670Z,11498.8
2023-04-04T13:55:08.942Z,12088.4
2023-04-04T13:57:12.279Z,12708.2
2023-04-04T13:59:08.531Z,9414.4
2023-04-04T14:01:18.789Z,8518.5
2023-04-04T14:03:08.503Z,8518.5
2023-04-04T14:05:08.628Z,8518.5
2023-04-04T14:07:18.720Z,8103.1
2023-04-04T14:09:08.797Z,10938
2023-04-04T14:11:08.712Z,9897.1
2023-04-04T14:13:12.359Z,11498.8
2023-04-04T14:15:09.005Z,10938
2023-04-04T14:17:08.482Z,9897.1
2023-04-04T14:19:11.825Z,8955.3
2023-04-04T14:21:08.798Z,8518.5
2023-04-04T14:23:08.522Z,8518.5
2023-04-04T14:25:09.428Z,8103.1
2023-04-04T14:27:11.877Z,8103.1
2023-04-04T14:29:08.507Z,8103.1
2023-04-04T14:31:08.778Z,8518.5
2023-04-04T14:33:08.640Z,8955.3
2023-04-04T14:35:08.529Z,8955.3
2023-04-04T14:37:12.242Z,9414.4
2023-04-04T14:39:08.782Z,8955.3
2023-04-04T14:41:08.480Z,8955.3
2023-04-04T14:43:08.633Z,8955.3
2023-04-04T14:45:08.545Z,8955.3
2023-04-04T14:47:08.648Z,8103.1
2023-04-04T14:51:08.466Z,7707.9
2023-04-04T14:53:08.522Z,7332
2023-04-04T14:55:09.389Z,6974.4
2023-04-04T14:57:08.886Z,6974.4
2023-04-04T14:59:08.853Z,6634.2
2023-04-04T15:01:08.611Z,6634.2
2023-04-04T15:03:08.929Z,6634.2
2023-04-04T15:05:15.765Z,6310.7
2023-04-04T15:07:08.698Z,6002.9
2023-04-04T15:09:08.515Z,3641
2023-04-04T15:11:08.536Z,6310.7
2023-04-04T15:13:08.482Z,6310.7
2023-04-04T15:15:08.541Z,6634.2
2023-04-04T15:17:08.652Z,6634.2
2023-04-04T15:19:12.306Z,6974.4
2023-04-04T15:21:08.671Z,6974.4
2023-04-04T15:23:08.536Z,6974.4
2023-04-04T15:25:08.387Z,6634.2
2023-04-04T15:27:08.566Z,6634.2
2023-04-04T15:29:18.669Z,6310.7
2023-04-04T15:31:11.816Z,6310.7
2023-04-04T15:33:08.696Z,6310.7
2023-04-04T15:35:08.579Z,6002.9
2023-04-04T15:37:11.962Z,5710.1
2023-04-04T15:39:08.445Z,5166.8
2023-04-04T15:41:08.426Z,3294.5
2023-04-04T15:43:12.027Z,5431.7
2023-04-04T15:45:08.641Z,3463.4
2023-04-04T15:47:08.488Z,5431.7
2023-04-04T15:49:12.051Z,5710.1
2023-04-04T15:51:08.696Z,5710.1
2023-04-04T15:53:08.573Z,5431.7
2023-04-04T15:55:08.696Z,5431.7
2023-04-04T15:57:08.427Z,5431.7
2023-04-04T15:59:11.948Z,5166.8
2023-04-04T16:01:08.834Z,5166.8
2023-04-04T16:03:08.840Z,4914.8
2023-04-04T16:05:08.359Z,4914.8
2023-04-04T16:07:12.366Z,4675.1
2023-04-04T16:09:11.795Z,4675.1
2023-04-04T16:11:08.387Z,4675.1
2023-04-04T16:13:08.636Z,4675.1
2023-04-04T16:15:12.027Z,4447.1
2023-04-04T16:17:08.591Z,4447.1
2023-04-04T16:19:08.609Z,4230.2
2023-04-04T16:21:11.921Z,4230.2
2023-04-04T16:23:08.384Z,4023.9
2023-04-04T16:25:08.563Z,4023.9
2023-04-04T16:27:09.107Z,3827.6
2023-04-04T16:29:08.561Z,3641
2023-04-04T16:31:08.904Z,3463.4
2023-04-04T16:33:08.582Z,3463.4
2023-04-04T16:37:12.189Z,3294.5
2023-04-04T16:39:08.514Z,3133.8
2023-04-04T16:41:08.684Z,2981
2023-04-04T16:43:11.951Z,2981
2023-04-04T16:45:08.565Z,2835.6
2023-04-04T16:47:14.784Z,2835.6
2023-04-04T16:49:08.494Z,2697.3
2023-04-04T16:51:11.551Z,2565.7
2023-04-04T16:53:12.188Z,2440.6
2023-04-04T16:55:08.619Z,2321.6
2023-04-04T16:57:11.878Z,2321.6
2023-04-04T16:59:12.151Z,2208.3
2023-04-04T17:01:08.509Z,2100.6
2023-04-04T17:03:12.295Z,1998.2
2023-04-04T17:05:08.517Z,1900.7
2023-04-04T17:07:08.634Z,1808
2023-04-04T17:09:08.523Z,1719.9
2023-04-04T17:11:11.924Z,1636
2023-04-04T17:13:08.567Z,1556.2
2023-04-04T17:15:08.435Z,1408.1
2023-04-04T17:17:08.399Z,1339.4
2023-04-04T17:19:15.194Z,1212
2023-04-04T17:21:12.030Z,1043.1
2023-04-04T17:23:08.507Z,943.9
2023-04-04T17:25:08.487Z,812.4
2023-04-04T17:27:12.301Z,699.2
2023-04-04T17:29:08.530Z,632.7
2023-04-04T17:31:08.522Z,572.5
2023-04-04T17:33:08.578Z,518
2023-04-04T17:35:08.583Z,468.7
2023-04-04T17:37:08.575Z,403.4
2023-04-04T17:39:08.603Z,347.2
2023-04-04T17:41:12.168Z,298.9
2023-04-04T17:43:08.490Z,257.2
2023-04-04T17:45:08.981Z,210.6
2023-04-04T17:47:08.817Z,181.3
2023-04-04T17:49:12.157Z,148.4
2023-04-04T17:51:08.581Z,121.5
2023-04-04T17:53:08.572Z,99.5
2023-04-04T17:55:08.672Z,81.5
2023-04-04T17:57:12.146Z,60.3
2023-04-04T17:59:08.481Z,47
2023-04-04T18:01:08.565Z,34.8
2023-04-04T18:03:08.645Z,24.5
2023-04-04T18:05:15.393Z,17.3
2023-04-04T18:07:08.654Z,12.2
2023-04-04T18:09:08.466Z,8.6
2023-04-04T18:11:11.929Z,5.8
2023-04-04T18:13:08.571Z,4.1
2023-04-04T18:15:12.303Z,2.7
2023-04-04T18:17:15.355Z,1.8
2023-04-04T18:19:12.256Z,1.2
2023-04-04T18:21:08.617Z,0.9
2023-04-04T18:23:08.625Z,0.6
2023-04-04T18:25:08.818Z,0.4
2023-04-04T18:27:08.565Z,0.3
2023-04-04T18:29:08.809Z,0.2
2023-04-04T18:31:08.573Z,0.1
2023-04-04T18:33:12.071Z,0.1
2023-04-04T18:35:08.760Z,0.1
2023-04-04T18:37:08.651Z,0.1
2023-04-04T18:39:12.024Z,0
2023-04-04T18:41:12.090Z,0
2023-04-04T18:43:08.688Z,0
2023-04-04T18:45:08.915Z,0
2023-04-04T18:47:08.711Z,0
2023-04-04T18:49:08.830Z,1
2023-04-04T18:51:08.480Z,1
2023-04-04T18:53:08.905Z,1
2023-04-04T18:55:08.639Z,1
2023-04-04T18:57:08.762Z,1
2023-04-04T18:59:15.388Z,1
2023-04-04T19:01:08.650Z,1
2023-04-04T19:03:09.160Z,1
2023-04-04T19:05:11.923Z,1
2023-04-04T19:07:08.498Z,1
2023-04-04T19:09:08.815Z,1
2023-04-04T19:11:08.862Z,1
2023-04-04T19:13:08.832Z,1
2023-04-04T19:15:08.741Z,1
2023-04-04T19:17:12.083Z,1
2023-04-04T19:19:08.821Z,1
2023-04-04T19:21:10.269Z,1
2023-04-04T19:23:15.588Z,1
2023-04-04T19:25:08.963Z,1
2023-04-04T19:27:08.610Z,1
2023-04-04T19:29:08.981Z,1
2023-04-04T19:31:12.029Z,1
2023-04-04T19:33:08.641Z,1
2023-04-04T19:35:08.651Z,1
2023-04-04T19:37:11.977Z,1
2023-04-04T19:39:08.895Z,1
2023-04-04T19:41:12.088Z,1
2023-04-04T19:43:08.576Z,1
2023-04-04T19:45:08.614Z,1
2023-04-04T19:47:08.817Z,1
2023-04-04T19:49:11.874Z,1
2023-04-04T19:51:12.252Z,1
2023-04-04T19:53:08.608Z,1
2023-04-04T19:55:09.040Z,0
2023-04-04T20:01:08.593Z,0
2023-04-04T20:03:11.970Z,0
2023-04-04T20:05:11.929Z,0
2023-04-04T20:07:15.068Z,0
2023-04-04T20:09:08.771Z,0
2023-04-04T20:11:12.354Z,0
2023-04-04T20:13:12.269Z,0
2023-04-04T20:15:08.723Z,0
2023-04-04T20:17:08.678Z,0
2023-04-04T20:19:08.584Z,0
2023-04-04T20:21:08.492Z,0
2023-04-04T20:23:12.070Z,0
2023-04-04T20:25:08.623Z,0
2023-04-04T20:27:08.673Z,0
2023-04-04T20:29:08.717Z,0
2023-04-04T20:31:10.867Z,0
2023-04-04T20:33:08.702Z,0
2023-04-04T20:35:08.565Z,0
2023-04-04T20:37:12.250Z,0
2023-04-04T20:39:15.398Z,0
2023-04-04T20:41:08.612Z,0
2023-04-04T20:43:15.349Z,0
2023-04-04T20:45:08.881Z,0
2023-04-04T20:47:08.765Z,0
2023-04-04T20:49:08.676Z,0
2023-04-04T20:51:08.658Z,0
2023-04-04T20:53:08.731Z,0
2023-04-04T20:55:12.149Z,0
2023-04-04T20:57:12.280Z,0
2023-04-04T21:01:15.476Z,0
2023-04-04T21:03:08.524Z,0
2023-04-04T21:05:08.566Z,0
2023-04-04T21:07:08.806Z,0
2023-04-04T21:09:08.660Z,0
2023-04-04T21:13:08.575Z,0
2023-04-04T21:15:11.883Z,0
2023-04-04T21:17:15.280Z,0
2023-04-04T21:19:12.387Z,0
2023-04-04T21:21:08.506Z,0
2023-04-04T21:23:08.839Z,0
2023-04-04T21:25:11.985Z,0
2023-04-04T21:27:08.526Z,0
2023-04-04T21:29:08.874Z,0
2023-04-04T21:31:12.357Z,0
2023-04-04T21:35:08.510Z,0
2023-04-04T21:37:11.779Z,0
2023-04-04T21:39:08.508Z,0
2023-04-04T21:41:11.662Z,0
2023-04-04T21:43:08.679Z,0
2023-04-04T21:45:08.582Z,0
2023-04-04T21:47:12.626Z,0
2023-04-04T21:49:08.532Z,0
2023-04-04T21:51:08.784Z,0
2023-04-04T21:53:08.717Z,0
2023-04-04T21:55:15.341Z,0
2023-04-04T21:57:08.563Z,0
2023-04-04T21:59:15.611Z,0
2023-04-04T22:01:08.540Z,0
2023-04-04T22:03:08.610Z,0
2023-04-04T22:07:15.277Z,0
2023-04-04T22:09:08.771Z,0
2023-04-04T22:11:15.392Z,0
2023-04-04T22:13:08.688Z,0
2023-04-04T22:15:08.664Z,0
2023-04-04T22:17:08.823Z,0
2023-04-04T22:19:08.927Z,0
2023-04-04T22:21:08.726Z,0
2023-04-04T22:23:08.634Z,0
2023-04-04T22:25:08.710Z,0
2023-04-04T22:27:15.533Z,0
2023-04-04T22:29:08.626Z,0
2023-04-04T22:31:08.467Z,0
2023-04-04T22:33:11.863Z,0
2023-04-04T22:35:08.548Z,0
2023-04-04T22:37:08.715Z,0
2023-04-04T22:39:15.473Z,0
2023-04-04T22:41:08.589Z,0
2023-04-04T22:43:12.463Z,0
2023-04-04T22:45:12.340Z,0
2023-04-04T22:47:08.605Z,1
2023-04-04T22:49:08.909Z,0
2023-04-04T22:51:08.767Z,0
2023-04-04T22:53:08.590Z,1
2023-04-04T22:55:12.459Z,1
2023-04-04T22:57:15.601Z,1
2023-04-04T22:59:08.721Z,1
2023-04-04T23:01:08.735Z,1
2023-04-04T23:03:08.829Z,1
2023-04-04T23:05:08.554Z,1
2023-04-04T23:07:11.996Z,0
2023-04-04T23:09:08.941Z,0
2023-04-04T23:11:15.018Z,0
2023-04-04T23:13:08.459Z,0
2023-04-04T23:15:18.621Z,0
2023-04-04T23:17:08.506Z,0
2023-04-04T23:19:11.877Z,0
2023-04-04T23:21:08.787Z,0
2023-04-04T23:23:08.778Z,0
2023-04-04T23:25:08.600Z,0
2023-04-04T23:27:08.796Z,0
2023-04-04T23:29:12.012Z,0
2023-04-04T23:31:11.923Z,0
2023-04-04T23:33:08.650Z,0
2023-04-04T23:35:12.308Z,0
2023-04-04T23:37:08.659Z,0
2023-04-04T23:39:08.802Z,0
2023-04-04T23:41:12.247Z,0
2023-04-04T23:43:08.600Z,0
2023-04-04T23:45:08.986Z,0
2023-04-04T23:47:08.593Z,0
2023-04-04T23:49:08.643Z,0
2023-04-04T23:51:08.622Z,0
2023-04-04T23:53:08.842Z,0
2023-04-04T23:55:08.865Z,0
2023-04-04T23:57:11.764Z,0
2023-04-04T23:59:08.670Z,0
